sensor_id;sensor_type;location;lat;lon;timestamp;P1;durP1;ratioP1;P2;durP2;ratioP2
18610;SDS011;9435;52.122;5.502;2023-04-01T00:00:36;35.40;;;13.90;;
18610;SDS011;9435;52.122;5.502;2023-04-01T00:03:03;30.13;;;12.73;;
18610;SDS011;9435;52.122;5.502;2023-04-01T00:05:30;33.20;;;14.18;;
18610;SDS011;9435;52.122;5.502;2023-04-01T00:07:57;36.10;;;13.35;;
18610;SDS011;9435;52.122;5.502;2023-04-01T00:10:25;37.22;;;14.90;;
18610;SDS011;9435;52.122;5.502;2023-04-01T00:12:52;39.30;;;15.90;;
18610;SDS011;9435;52.122;5.502;2023-04-01T00:15:19;41.83;;;16.33;;
18610;SDS011;9435;52.122;5.502;2023-04-01T00:17:46;38.83;;;16.08;;
18610;SDS011;9435;52.122;5.502;2023-04-01T00:20:14;43.33;;;16.90;;
18610;SDS011;9435;52.122;5.502;2023-04-01T00:22:41;43.50;;;17.05;;
18610;SDS011;9435;52.122;5.502;2023-04-01T00:25:09;45.00;;;16.85;;
18610;SDS011;9435;52.122;5.502;2023-04-01T00:27:37;38.75;;;16.80;;
18610;SDS011;9435;52.122;5.502;2023-04-01T00:30:05;51.15;;;17.58;;
18610;SDS011;9435;52.122;5.502;2023-04-01T00:32:33;46.22;;;17.20;;
18610;SDS011;9435;52.122;5.502;2023-04-01T00:35:00;53.47;;;18.13;;
18610;SDS011;9435;52.122;5.502;2023-04-01T00:37:27;46.08;;;17.38;;
18610;SDS011;9435;52.122;5.502;2023-04-01T00:39:55;45.70;;;17.63;;
18610;SDS011;9435;52.122;5.502;2023-04-01T00:42:22;50.35;;;19.00;;
18610;SDS011;9435;52.122;5.502;2023-04-01T00:44:53;54.10;;;19.35;;
18610;SDS011;9435;52.122;5.502;2023-04-01T00:47:21;57.00;;;19.65;;
18610;SDS011;9435;52.122;5.502;2023-04-01T00:49:49;66.88;;;20.58;;
18610;SDS011;9435;52.122;5.502;2023-04-01T00:52:18;57.92;;;21.23;;
18610;SDS011;9435;52.122;5.502;2023-04-01T00:54:50;71.55;;;23.17;;
18610;SDS011;9435;52.122;5.502;2023-04-01T00:57:23;75.10;;;24.67;;
18610;SDS011;9435;52.122;5.502;2023-04-01T00:59:55;71.55;;;23.98;;
18610;SDS011;9435;52.122;5.502;2023-04-01T01:02:24;67.28;;;23.60;;
18610;SDS011;9435;52.122;5.502;2023-04-01T01:04:51;75.20;;;23.58;;
18610;SDS011;9435;52.122;5.502;2023-04-01T01:07:20;70.15;;;22.50;;
18610;SDS011;9435;52.122;5.502;2023-04-01T01:09:56;62.08;;;21.38;;
18610;SDS011;9435;52.122;5.502;2023-04-01T01:12:30;72.18;;;22.30;;
18610;SDS011;9435;52.122;5.502;2023-04-01T01:15:06;77.50;;;23.15;;
18610;SDS011;9435;52.122;5.502;2023-04-01T01:17:44;64.25;;;22.75;;
18610;SDS011;9435;52.122;5.502;2023-04-01T01:26:23;70.18;;;24.73;;
18610;SDS011;9435;52.122;5.502;2023-04-01T01:29:05;79.32;;;24.25;;
18610;SDS011;9435;52.122;5.502;2023-04-01T01:31:43;80.53;;;26.05;;
18610;SDS011;9435;52.122;5.502;2023-04-01T01:34:17;80.35;;;25.10;;
18610;SDS011;9435;52.122;5.502;2023-04-01T01:36:53;68.20;;;24.45;;
18610;SDS011;9435;52.122;5.502;2023-04-01T01:39:24;74.50;;;25.13;;
18610;SDS011;9435;52.122;5.502;2023-04-01T01:41:54;78.22;;;24.23;;
18610;SDS011;9435;52.122;5.502;2023-04-01T01:44:26;63.25;;;23.23;;
18610;SDS011;9435;52.122;5.502;2023-04-01T01:46:56;62.65;;;21.60;;
18610;SDS011;9435;52.122;5.502;2023-04-01T01:49:24;63.10;;;22.00;;
18610;SDS011;9435;52.122;5.502;2023-04-01T01:51:53;58.22;;;21.42;;
18610;SDS011;9435;52.122;5.502;2023-04-01T01:54:20;52.45;;;21.65;;
18610;SDS011;9435;52.122;5.502;2023-04-01T01:56:48;53.35;;;19.55;;
18610;SDS011;9435;52.122;5.502;2023-04-01T01:59:19;52.80;;;19.27;;
18610;SDS011;9435;52.122;5.502;2023-04-01T02:01:49;54.97;;;19.08;;
18610;SDS011;9435;52.122;5.502;2023-04-01T02:04:19;39.28;;;14.88;;
18610;SDS011;9435;52.122;5.502;2023-04-01T02:06:48;36.90;;;13.52;;
18610;SDS011;9435;52.122;5.502;2023-04-01T02:09:20;27.58;;;11.57;;
18610;SDS011;9435;52.122;5.502;2023-04-01T02:11:48;30.13;;;13.10;;
18610;SDS011;9435;52.122;5.502;2023-04-01T02:14:18;33.13;;;12.82;;
18610;SDS011;9435;52.122;5.502;2023-04-01T02:16:49;33.30;;;14.57;;
18610;SDS011;9435;52.122;5.502;2023-04-01T02:19:19;34.28;;;14.85;;
18610;SDS011;9435;52.122;5.502;2023-04-01T02:21:49;33.97;;;14.85;;
18610;SDS011;9435;52.122;5.502;2023-04-01T02:24:18;35.75;;;14.85;;
18610;SDS011;9435;52.122;5.502;2023-04-01T02:26:49;34.35;;;15.05;;
18610;SDS011;9435;52.122;5.502;2023-04-01T02:29:18;35.00;;;16.00;;
18610;SDS011;9435;52.122;5.502;2023-04-01T02:31:48;43.38;;;16.15;;
18610;SDS011;9435;52.122;5.502;2023-04-01T02:34:16;33.70;;;14.02;;
18610;SDS011;9435;52.122;5.502;2023-04-01T02:36:43;29.20;;;12.75;;
18610;SDS011;9435;52.122;5.502;2023-04-01T02:39:10;30.00;;;12.85;;
18610;SDS011;9435;52.122;5.502;2023-04-01T02:41:42;32.83;;;13.73;;
18610;SDS011;9435;52.122;5.502;2023-04-01T02:44:11;33.78;;;14.13;;
18610;SDS011;9435;52.122;5.502;2023-04-01T02:46:39;34.55;;;13.73;;
18610;SDS011;9435;52.122;5.502;2023-04-01T02:49:07;30.25;;;13.50;;
18610;SDS011;9435;52.122;5.502;2023-04-01T02:51:35;31.55;;;13.80;;
18610;SDS011;9435;52.122;5.502;2023-04-01T02:54:02;32.25;;;14.65;;
18610;SDS011;9435;52.122;5.502;2023-04-01T02:56:29;29.77;;;13.40;;
18610;SDS011;9435;52.122;5.502;2023-04-01T02:58:58;33.00;;;14.05;;
18610;SDS011;9435;52.122;5.502;2023-04-01T03:01:25;36.50;;;15.32;;
18610;SDS011;9435;52.122;5.502;2023-04-01T03:03:52;28.15;;;13.70;;
18610;SDS011;9435;52.122;5.502;2023-04-01T03:06:19;30.73;;;13.95;;
18610;SDS011;9435;52.122;5.502;2023-04-01T03:08:46;28.73;;;14.00;;
18610;SDS011;9435;52.122;5.502;2023-04-01T03:11:13;32.45;;;14.57;;
18610;SDS011;9435;52.122;5.502;2023-04-01T03:13:40;30.55;;;13.60;;
18610;SDS011;9435;52.122;5.502;2023-04-01T03:16:08;30.77;;;13.35;;
18610;SDS011;9435;52.122;5.502;2023-04-01T03:18:36;29.83;;;13.00;;
18610;SDS011;9435;52.122;5.502;2023-04-01T03:21:12;24.67;;;12.55;;
18610;SDS011;9435;52.122;5.502;2023-04-01T03:23:40;27.70;;;11.98;;
18610;SDS011;9435;52.122;5.502;2023-04-01T03:26:07;26.92;;;12.10;;
18610;SDS011;9435;52.122;5.502;2023-04-01T03:28:34;25.50;;;11.50;;
18610;SDS011;9435;52.122;5.502;2023-04-01T03:31:02;28.00;;;11.65;;
18610;SDS011;9435;52.122;5.502;2023-04-01T03:33:31;26.73;;;12.23;;
18610;SDS011;9435;52.122;5.502;2023-04-01T03:35:59;25.73;;;10.95;;
18610;SDS011;9435;52.122;5.502;2023-04-01T03:38:26;26.27;;;11.18;;
18610;SDS011;9435;52.122;5.502;2023-04-01T03:40:53;25.85;;;11.07;;
18610;SDS011;9435;52.122;5.502;2023-04-01T03:43:20;25.38;;;10.57;;
18610;SDS011;9435;52.122;5.502;2023-04-01T03:45:48;25.17;;;10.80;;
18610;SDS011;9435;52.122;5.502;2023-04-01T03:48:16;25.05;;;10.35;;
18610;SDS011;9435;52.122;5.502;2023-04-01T03:50:45;26.20;;;10.98;;
18610;SDS011;9435;52.122;5.502;2023-04-01T03:53:13;28.17;;;11.18;;
18610;SDS011;9435;52.122;5.502;2023-04-01T03:55:40;24.88;;;10.18;;
18610;SDS011;9435;52.122;5.502;2023-04-01T03:58:07;25.00;;;10.80;;
18610;SDS011;9435;52.122;5.502;2023-04-01T04:00:35;22.80;;;9.95;;
18610;SDS011;9435;52.122;5.502;2023-04-01T04:03:02;24.77;;;10.27;;
18610;SDS011;9435;52.122;5.502;2023-04-01T04:05:29;25.52;;;10.20;;
18610;SDS011;9435;52.122;5.502;2023-04-01T04:07:58;28.25;;;11.05;;
18610;SDS011;9435;52.122;5.502;2023-04-01T04:10:25;32.55;;;11.90;;
18610;SDS011;9435;52.122;5.502;2023-04-01T04:12:54;29.70;;;12.27;;
18610;SDS011;9435;52.122;5.502;2023-04-01T04:15:21;30.45;;;12.57;;
18610;SDS011;9435;52.122;5.502;2023-04-01T04:17:48;37.63;;;14.75;;
18610;SDS011;9435;52.122;5.502;2023-04-01T04:20:16;39.53;;;15.15;;
18610;SDS011;9435;52.122;5.502;2023-04-01T04:22:43;39.50;;;15.32;;
18610;SDS011;9435;52.122;5.502;2023-04-01T04:25:11;36.42;;;14.40;;
18610;SDS011;9435;52.122;5.502;2023-04-01T04:27:38;36.15;;;14.98;;
18610;SDS011;9435;52.122;5.502;2023-04-01T04:30:06;43.95;;;15.50;;
18610;SDS011;9435;52.122;5.502;2023-04-01T04:32:34;39.45;;;15.27;;
18610;SDS011;9435;52.122;5.502;2023-04-01T04:35:02;36.00;;;14.75;;
18610;SDS011;9435;52.122;5.502;2023-04-01T04:37:31;36.10;;;15.10;;
18610;SDS011;9435;52.122;5.502;2023-04-01T04:39:58;36.17;;;14.32;;
18610;SDS011;9435;52.122;5.502;2023-04-01T04:42:26;37.47;;;14.60;;
18610;SDS011;9435;52.122;5.502;2023-04-01T04:44:53;38.45;;;15.15;;
18610;SDS011;9435;52.122;5.502;2023-04-01T04:47:21;36.33;;;14.73;;
18610;SDS011;9435;52.122;5.502;2023-04-01T04:49:48;39.25;;;15.40;;
18610;SDS011;9435;52.122;5.502;2023-04-01T04:52:15;34.85;;;14.52;;
18610;SDS011;9435;52.122;5.502;2023-04-01T04:54:42;37.80;;;14.85;;
18610;SDS011;9435;52.122;5.502;2023-04-01T04:57:09;37.17;;;14.63;;
18610;SDS011;9435;52.122;5.502;2023-04-01T04:59:38;37.42;;;15.13;;
18610;SDS011;9435;52.122;5.502;2023-04-01T05:02:05;34.75;;;13.60;;
18610;SDS011;9435;52.122;5.502;2023-04-01T05:04:34;37.47;;;15.13;;
18610;SDS011;9435;52.122;5.502;2023-04-01T05:07:01;36.28;;;13.88;;
18610;SDS011;9435;52.122;5.502;2023-04-01T05:09:28;33.58;;;13.85;;
18610;SDS011;9435;52.122;5.502;2023-04-01T05:11:56;33.45;;;12.98;;
18610;SDS011;9435;52.122;5.502;2023-04-01T05:14:23;30.20;;;12.38;;
18610;SDS011;9435;52.122;5.502;2023-04-01T05:16:51;28.25;;;11.25;;
18610;SDS011;9435;52.122;5.502;2023-04-01T05:19:19;28.02;;;11.15;;
18610;SDS011;9435;52.122;5.502;2023-04-01T05:21:46;30.52;;;11.07;;
18610;SDS011;9435;52.122;5.502;2023-04-01T05:24:13;29.45;;;10.43;;
18610;SDS011;9435;52.122;5.502;2023-04-01T05:26:40;31.00;;;10.02;;
18610;SDS011;9435;52.122;5.502;2023-04-01T05:29:07;30.70;;;10.52;;
18610;SDS011;9435;52.122;5.502;2023-04-01T05:31:34;27.95;;;9.55;;
18610;SDS011;9435;52.122;5.502;2023-04-01T05:34:02;25.75;;;9.20;;
18610;SDS011;9435;52.122;5.502;2023-04-01T05:36:30;24.75;;;8.90;;
18610;SDS011;9435;52.122;5.502;2023-04-01T05:38:57;24.58;;;8.30;;
18610;SDS011;9435;52.122;5.502;2023-04-01T05:41:24;24.95;;;8.75;;
18610;SDS011;9435;52.122;5.502;2023-04-01T05:43:51;21.27;;;8.50;;
18610;SDS011;9435;52.122;5.502;2023-04-01T05:46:18;24.83;;;9.30;;
18610;SDS011;9435;52.122;5.502;2023-04-01T05:48:45;23.95;;;9.50;;
18610;SDS011;9435;52.122;5.502;2023-04-01T05:51:13;22.08;;;8.32;;
18610;SDS011;9435;52.122;5.502;2023-04-01T05:53:41;22.83;;;9.05;;
18610;SDS011;9435;52.122;5.502;2023-04-01T05:56:09;23.05;;;8.52;;
18610;SDS011;9435;52.122;5.502;2023-04-01T05:58:36;17.90;;;7.13;;
18610;SDS011;9435;52.122;5.502;2023-04-01T06:01:04;20.17;;;7.75;;
18610;SDS011;9435;52.122;5.502;2023-04-01T06:03:32;18.40;;;7.38;;
18610;SDS011;9435;52.122;5.502;2023-04-01T06:05:59;18.40;;;6.63;;
18610;SDS011;9435;52.122;5.502;2023-04-01T06:08:29;16.58;;;6.55;;
18610;SDS011;9435;52.122;5.502;2023-04-01T06:11:07;14.20;;;5.78;;
18610;SDS011;9435;52.122;5.502;2023-04-01T06:13:47;13.50;;;5.57;;
18610;SDS011;9435;52.122;5.502;2023-04-01T06:16:30;14.32;;;5.30;;
18610;SDS011;9435;52.122;5.502;2023-04-01T06:19:09;11.82;;;4.50;;
18610;SDS011;9435;52.122;5.502;2023-04-01T06:24:46;16.30;;;6.18;;
18610;SDS011;9435;52.122;5.502;2023-04-01T06:27:22;15.57;;;6.18;;
18610;SDS011;9435;52.122;5.502;2023-04-01T06:30:05;18.17;;;6.28;;
18610;SDS011;9435;52.122;5.502;2023-04-01T06:32:56;16.42;;;5.82;;
18610;SDS011;9435;52.122;5.502;2023-04-01T06:35:42;15.50;;;6.18;;
18610;SDS011;9435;52.122;5.502;2023-04-01T06:38:32;14.93;;;5.90;;
18610;SDS011;9435;52.122;5.502;2023-04-01T06:44:22;18.23;;;6.90;;
18610;SDS011;9435;52.122;5.502;2023-04-01T06:46:57;15.88;;;6.30;;
18610;SDS011;9435;52.122;5.502;2023-04-01T06:49:29;14.23;;;5.82;;
18610;SDS011;9435;52.122;5.502;2023-04-01T06:52:06;13.98;;;5.88;;
18610;SDS011;9435;52.122;5.502;2023-04-01T06:54:44;13.82;;;5.60;;
18610;SDS011;9435;52.122;5.502;2023-04-01T06:57:18;15.35;;;5.35;;
18610;SDS011;9435;52.122;5.502;2023-04-01T06:59:52;15.68;;;5.45;;
18610;SDS011;9435;52.122;5.502;2023-04-01T07:02:24;12.05;;;4.75;;
18610;SDS011;9435;52.122;5.502;2023-04-01T07:04:58;13.38;;;5.03;;
18610;SDS011;9435;52.122;5.502;2023-04-01T07:07:29;8.95;;;3.60;;
18610;SDS011;9435;52.122;5.502;2023-04-01T07:10:02;8.15;;;3.45;;
18610;SDS011;9435;52.122;5.502;2023-04-01T07:12:37;7.88;;;2.42;;
18610;SDS011;9435;52.122;5.502;2023-04-01T07:15:14;4.85;;;2.33;;
18610;SDS011;9435;52.122;5.502;2023-04-01T07:17:45;5.13;;;2.28;;
18610;SDS011;9435;52.122;5.502;2023-04-01T07:20:17;5.95;;;2.42;;
18610;SDS011;9435;52.122;5.502;2023-04-01T07:22:48;7.35;;;2.95;;
18610;SDS011;9435;52.122;5.502;2023-04-01T07:25:18;8.95;;;3.20;;
18610;SDS011;9435;52.122;5.502;2023-04-01T07:27:47;9.13;;;3.72;;
18610;SDS011;9435;52.122;5.502;2023-04-01T07:30:17;8.27;;;4.00;;
18610;SDS011;9435;52.122;5.502;2023-04-01T07:32:47;8.70;;;3.88;;
18610;SDS011;9435;52.122;5.502;2023-04-01T07:35:21;8.73;;;4.25;;
18610;SDS011;9435;52.122;5.502;2023-04-01T07:38:07;10.95;;;4.40;;
18610;SDS011;9435;52.122;5.502;2023-04-01T07:40:43;10.32;;;4.80;;
18610;SDS011;9435;52.122;5.502;2023-04-01T07:43:22;11.18;;;4.90;;
18610;SDS011;9435;52.122;5.502;2023-04-01T07:46:11;11.05;;;4.97;;
18610;SDS011;9435;52.122;5.502;2023-04-01T07:48:49;11.77;;;5.30;;
18610;SDS011;9435;52.122;5.502;2023-04-01T07:51:26;12.00;;;5.63;;
18610;SDS011;9435;52.122;5.502;2023-04-01T07:53:58;13.57;;;5.97;;
18610;SDS011;9435;52.122;5.502;2023-04-01T07:56:33;13.48;;;6.28;;
18610;SDS011;9435;52.122;5.502;2023-04-01T07:59:08;13.40;;;6.13;;
18610;SDS011;9435;52.122;5.502;2023-04-01T08:01:46;11.18;;;5.65;;
18610;SDS011;9435;52.122;5.502;2023-04-01T08:04:28;13.82;;;6.70;;
18610;SDS011;9435;52.122;5.502;2023-04-01T08:07:08;16.60;;;6.90;;
18610;SDS011;9435;52.122;5.502;2023-04-01T08:09:42;14.73;;;6.95;;
18610;SDS011;9435;52.122;5.502;2023-04-01T08:12:18;16.48;;;6.82;;
18610;SDS011;9435;52.122;5.502;2023-04-01T08:14:56;14.90;;;6.38;;
18610;SDS011;9435;52.122;5.502;2023-04-01T08:17:30;14.27;;;6.60;;
18610;SDS011;9435;52.122;5.502;2023-04-01T08:20:07;15.80;;;7.15;;
18610;SDS011;9435;52.122;5.502;2023-04-01T08:22:45;13.73;;;6.68;;
18610;SDS011;9435;52.122;5.502;2023-04-01T08:25:17;15.10;;;6.82;;
18610;SDS011;9435;52.122;5.502;2023-04-01T08:27:50;13.38;;;6.22;;
18610;SDS011;9435;52.122;5.502;2023-04-01T08:30:21;14.05;;;6.47;;
18610;SDS011;9435;52.122;5.502;2023-04-01T08:32:53;16.80;;;7.20;;
18610;SDS011;9435;52.122;5.502;2023-04-01T08:35:26;16.52;;;7.78;;
18610;SDS011;9435;52.122;5.502;2023-04-01T08:37:56;17.20;;;7.90;;
18610;SDS011;9435;52.122;5.502;2023-04-01T08:40:35;15.63;;;7.90;;
18610;SDS011;9435;52.122;5.502;2023-04-01T08:43:14;17.85;;;7.85;;
18610;SDS011;9435;52.122;5.502;2023-04-01T08:45:56;16.83;;;8.07;;
18610;SDS011;9435;52.122;5.502;2023-04-01T08:48:58;17.17;;;8.10;;
18610;SDS011;9435;52.122;5.502;2023-04-01T08:51:50;18.27;;;8.23;;
18610;SDS011;9435;52.122;5.502;2023-04-01T08:54:42;18.50;;;9.10;;
18610;SDS011;9435;52.122;5.502;2023-04-01T08:57:25;18.50;;;8.68;;
18610;SDS011;9435;52.122;5.502;2023-04-01T09:00:10;17.55;;;8.65;;
18610;SDS011;9435;52.122;5.502;2023-04-01T09:02:50;19.45;;;9.32;;
18610;SDS011;9435;52.122;5.502;2023-04-01T09:05:36;17.38;;;8.73;;
18610;SDS011;9435;52.122;5.502;2023-04-01T09:08:16;21.50;;;9.30;;
18610;SDS011;9435;52.122;5.502;2023-04-01T09:11:00;19.13;;;9.10;;
18610;SDS011;9435;52.122;5.502;2023-04-01T09:16:44;19.30;;;9.77;;
18610;SDS011;9435;52.122;5.502;2023-04-01T09:19:40;21.15;;;9.48;;
18610;SDS011;9435;52.122;5.502;2023-04-01T09:22:36;18.17;;;9.10;;
18610;SDS011;9435;52.122;5.502;2023-04-01T09:28:12;19.55;;;9.60;;
18610;SDS011;9435;52.122;5.502;2023-04-01T09:30:55;19.17;;;9.02;;
18610;SDS011;9435;52.122;5.502;2023-04-01T09:43:12;18.58;;;9.32;;
18610;SDS011;9435;52.122;5.502;2023-04-01T09:48:46;20.10;;;9.07;;
18610;SDS011;9435;52.122;5.502;2023-04-01T09:51:29;19.58;;;9.38;;
18610;SDS011;9435;52.122;5.502;2023-04-01T09:54:09;17.67;;;9.13;;
18610;SDS011;9435;52.122;5.502;2023-04-01T09:56:52;19.27;;;9.43;;
18610;SDS011;9435;52.122;5.502;2023-04-01T10:00:01;16.50;;;8.73;;
18610;SDS011;9435;52.122;5.502;2023-04-01T10:03:08;17.98;;;9.32;;
18610;SDS011;9435;52.122;5.502;2023-04-01T10:09:29;16.42;;;9.15;;
18610;SDS011;9435;52.122;5.502;2023-04-01T10:15:34;18.30;;;9.30;;
18610;SDS011;9435;52.122;5.502;2023-04-01T10:18:29;15.25;;;8.80;;
18610;SDS011;9435;52.122;5.502;2023-04-01T10:21:22;15.07;;;8.50;;
18610;SDS011;9435;52.122;5.502;2023-04-01T10:24:20;12.02;;;6.20;;
18610;SDS011;9435;52.122;5.502;2023-04-01T10:27:20;8.32;;;5.10;;
18610;SDS011;9435;52.122;5.502;2023-04-01T10:33:29;8.73;;;5.25;;
18610;SDS011;9435;52.122;5.502;2023-04-01T10:42:40;9.40;;;5.25;;
18610;SDS011;9435;52.122;5.502;2023-04-01T10:52:20;8.65;;;5.00;;
18610;SDS011;9435;52.122;5.502;2023-04-01T10:55:10;11.02;;;5.72;;
18610;SDS011;9435;52.122;5.502;2023-04-01T10:57:59;10.45;;;5.85;;
18610;SDS011;9435;52.122;5.502;2023-04-01T11:00:56;8.50;;;5.22;;
18610;SDS011;9435;52.122;5.502;2023-04-01T11:03:46;8.13;;;5.13;;
18610;SDS011;9435;52.122;5.502;2023-04-01T11:15:57;7.20;;;4.03;;
18610;SDS011;9435;52.122;5.502;2023-04-01T11:24:49;4.55;;;3.00;;
18610;SDS011;9435;52.122;5.502;2023-04-01T11:27:55;6.05;;;3.10;;
18610;SDS011;9435;52.122;5.502;2023-04-01T11:30:52;4.07;;;2.50;;
18610;SDS011;9435;52.122;5.502;2023-04-01T11:33:31;4.20;;;2.30;;
18610;SDS011;9435;52.122;5.502;2023-04-01T11:36:06;3.33;;;2.25;;
18610;SDS011;9435;52.122;5.502;2023-04-01T11:41:49;3.10;;;1.50;;
18610;SDS011;9435;52.122;5.502;2023-04-01T11:44:23;2.35;;;1.70;;
18610;SDS011;9435;52.122;5.502;2023-04-01T11:46:59;2.78;;;2.00;;
18610;SDS011;9435;52.122;5.502;2023-04-01T11:49:50;3.13;;;2.15;;
18610;SDS011;9435;52.122;5.502;2023-04-01T11:52:32;2.80;;;1.90;;
18610;SDS011;9435;52.122;5.502;2023-04-01T11:55:19;2.45;;;1.75;;
18610;SDS011;9435;52.122;5.502;2023-04-01T11:58:18;2.63;;;1.77;;
18610;SDS011;9435;52.122;5.502;2023-04-01T12:01:08;2.63;;;1.67;;
18610;SDS011;9435;52.122;5.502;2023-04-01T12:03:51;2.40;;;1.70;;
18610;SDS011;9435;52.122;5.502;2023-04-01T12:06:41;2.40;;;1.58;;
18610;SDS011;9435;52.122;5.502;2023-04-01T12:09:15;3.15;;;2.10;;
18610;SDS011;9435;52.122;5.502;2023-04-01T12:11:51;2.60;;;1.90;;
18610;SDS011;9435;52.122;5.502;2023-04-01T12:14:27;3.88;;;2.40;;
18610;SDS011;9435;52.122;5.502;2023-04-01T12:17:04;4.13;;;2.85;;
18610;SDS011;9435;52.122;5.502;2023-04-01T12:19:41;4.55;;;2.55;;
18610;SDS011;9435;52.122;5.502;2023-04-01T12:22:22;3.97;;;2.47;;
18610;SDS011;9435;52.122;5.502;2023-04-01T12:25:03;5.85;;;3.72;;
18610;SDS011;9435;52.122;5.502;2023-04-01T12:27:45;6.45;;;3.90;;
18610;SDS011;9435;52.122;5.502;2023-04-01T12:30:34;8.05;;;5.22;;
18610;SDS011;9435;52.122;5.502;2023-04-01T12:36:07;11.77;;;6.40;;
18610;SDS011;9435;52.122;5.502;2023-04-01T12:38:47;12.02;;;7.40;;
18610;SDS011;9435;52.122;5.502;2023-04-01T12:41:24;13.23;;;7.72;;
18610;SDS011;9435;52.122;5.502;2023-04-01T12:44:11;13.82;;;8.05;;
18610;SDS011;9435;52.122;5.502;2023-04-01T12:47:00;14.73;;;8.60;;
18610;SDS011;9435;52.122;5.502;2023-04-01T12:52:47;14.40;;;7.53;;
18610;SDS011;9435;52.122;5.502;2023-04-01T12:55:35;16.55;;;9.48;;
18610;SDS011;9435;52.122;5.502;2023-04-01T13:01:10;15.95;;;8.73;;
18610;SDS011;9435;52.122;5.502;2023-04-01T13:03:56;16.38;;;9.27;;
18610;SDS011;9435;52.122;5.502;2023-04-01T13:06:42;14.60;;;8.00;;
18610;SDS011;9435;52.122;5.502;2023-04-01T13:09:30;17.52;;;9.65;;
18610;SDS011;9435;52.122;5.502;2023-04-01T13:12:14;18.10;;;10.18;;
18610;SDS011;9435;52.122;5.502;2023-04-01T13:15:05;20.42;;;9.65;;
18610;SDS011;9435;52.122;5.502;2023-04-01T13:17:41;17.25;;;9.50;;
18610;SDS011;9435;52.122;5.502;2023-04-01T13:20:19;16.58;;;9.23;;
18610;SDS011;9435;52.122;5.502;2023-04-01T13:22:58;13.80;;;6.82;;
18610;SDS011;9435;52.122;5.502;2023-04-01T13:25:38;11.80;;;6.65;;
18610;SDS011;9435;52.122;5.502;2023-04-01T13:28:12;13.73;;;7.88;;
18610;SDS011;9435;52.122;5.502;2023-04-01T13:30:46;15.77;;;7.72;;
18610;SDS011;9435;52.122;5.502;2023-04-01T13:33:17;13.27;;;6.85;;
18610;SDS011;9435;52.122;5.502;2023-04-01T13:35:56;9.10;;;5.30;;
18610;SDS011;9435;52.122;5.502;2023-04-01T13:41:32;9.68;;;5.50;;
18610;SDS011;9435;52.122;5.502;2023-04-01T13:44:14;10.05;;;5.78;;
18610;SDS011;9435;52.122;5.502;2023-04-01T13:47:03;10.13;;;6.07;;
18610;SDS011;9435;52.122;5.502;2023-04-01T13:50:01;10.55;;;5.93;;
18610;SDS011;9435;52.122;5.502;2023-04-01T13:55:33;11.82;;;6.30;;
18610;SDS011;9435;52.122;5.502;2023-04-01T13:58:19;8.63;;;5.30;;
18610;SDS011;9435;52.122;5.502;2023-04-01T14:00:55;10.38;;;5.40;;
18610;SDS011;9435;52.122;5.502;2023-04-01T14:03:44;8.70;;;4.90;;
18610;SDS011;9435;52.122;5.502;2023-04-01T14:06:31;10.18;;;5.10;;
18610;SDS011;9435;52.122;5.502;2023-04-01T14:09:28;12.52;;;6.03;;
18610;SDS011;9435;52.122;5.502;2023-04-01T14:12:13;11.38;;;6.28;;
18610;SDS011;9435;52.122;5.502;2023-04-01T14:14:56;9.02;;;5.15;;
18610;SDS011;9435;52.122;5.502;2023-04-01T14:17:46;9.52;;;5.28;;
18610;SDS011;9435;52.122;5.502;2023-04-01T14:20:26;12.13;;;5.88;;
18610;SDS011;9435;52.122;5.502;2023-04-01T14:26:07;12.80;;;7.13;;
18610;SDS011;9435;52.122;5.502;2023-04-01T14:28:53;12.77;;;7.30;;
18610;SDS011;9435;52.122;5.502;2023-04-01T14:31:34;13.45;;;7.28;;
18610;SDS011;9435;52.122;5.502;2023-04-01T14:34:29;12.77;;;6.88;;
18610;SDS011;9435;52.122;5.502;2023-04-01T14:37:19;10.88;;;6.15;;
18610;SDS011;9435;52.122;5.502;2023-04-01T14:40:14;10.77;;;6.22;;
18610;SDS011;9435;52.122;5.502;2023-04-01T14:46:04;10.65;;;6.20;;
18610;SDS011;9435;52.122;5.502;2023-04-01T14:48:52;10.05;;;6.10;;
18610;SDS011;9435;52.122;5.502;2023-04-01T14:51:23;9.77;;;5.75;;
18610;SDS011;9435;52.122;5.502;2023-04-01T14:54:00;10.52;;;6.53;;
18610;SDS011;9435;52.122;5.502;2023-04-01T14:56:35;10.90;;;6.35;;
18610;SDS011;9435;52.122;5.502;2023-04-01T14:59:04;11.70;;;6.70;;
18610;SDS011;9435;52.122;5.502;2023-04-01T15:01:37;10.77;;;6.45;;
18610;SDS011;9435;52.122;5.502;2023-04-01T15:04:22;13.07;;;7.07;;
18610;SDS011;9435;52.122;5.502;2023-04-01T15:07:21;11.95;;;6.50;;
18610;SDS011;9435;52.122;5.502;2023-04-01T15:10:09;10.00;;;5.90;;
18610;SDS011;9435;52.122;5.502;2023-04-01T15:12:50;10.52;;;6.40;;
18610;SDS011;9435;52.122;5.502;2023-04-01T15:15:29;11.63;;;5.80;;
18610;SDS011;9435;52.122;5.502;2023-04-01T15:18:08;10.07;;;6.38;;
18610;SDS011;9435;52.122;5.502;2023-04-01T15:20:55;10.77;;;6.38;;
18610;SDS011;9435;52.122;5.502;2023-04-01T15:23:44;10.10;;;5.97;;
18610;SDS011;9435;52.122;5.502;2023-04-01T15:26:26;8.07;;;5.20;;
18610;SDS011;9435;52.122;5.502;2023-04-01T15:29:11;9.05;;;5.40;;
18610;SDS011;9435;52.122;5.502;2023-04-01T15:32:05;9.43;;;5.18;;
18610;SDS011;9435;52.122;5.502;2023-04-01T15:34:44;8.80;;;5.55;;
18610;SDS011;9435;52.122;5.502;2023-04-01T15:37:21;6.82;;;4.53;;
18610;SDS011;9435;52.122;5.502;2023-04-01T15:40:01;8.70;;;5.07;;
18610;SDS011;9435;52.122;5.502;2023-04-01T15:42:44;8.27;;;5.10;;
18610;SDS011;9435;52.122;5.502;2023-04-01T15:45:26;7.72;;;4.93;;
18610;SDS011;9435;52.122;5.502;2023-04-01T15:48:13;9.43;;;5.22;;
18610;SDS011;9435;52.122;5.502;2023-04-01T15:50:53;12.02;;;6.47;;
18610;SDS011;9435;52.122;5.502;2023-04-01T15:53:37;11.27;;;7.07;;
18610;SDS011;9435;52.122;5.502;2023-04-01T15:56:26;12.95;;;7.20;;
18610;SDS011;9435;52.122;5.502;2023-04-01T15:59:07;10.02;;;6.07;;
18610;SDS011;9435;52.122;5.502;2023-04-01T16:01:46;9.48;;;5.55;;
18610;SDS011;9435;52.122;5.502;2023-04-01T16:04:44;11.05;;;5.78;;
18610;SDS011;9435;52.122;5.502;2023-04-01T16:07:20;9.25;;;5.82;;
18610;SDS011;9435;52.122;5.502;2023-04-01T16:10:17;10.13;;;5.40;;
18610;SDS011;9435;52.122;5.502;2023-04-01T16:12:58;10.98;;;6.13;;
18610;SDS011;9435;52.122;5.502;2023-04-01T16:15:39;9.13;;;5.95;;
18610;SDS011;9435;52.122;5.502;2023-04-01T16:21:12;29.77;;;13.43;;
18610;SDS011;9435;52.122;5.502;2023-04-01T16:23:49;13.20;;;7.60;;
18610;SDS011;9435;52.122;5.502;2023-04-01T16:26:22;11.13;;;6.43;;
18610;SDS011;9435;52.122;5.502;2023-04-01T16:28:55;10.32;;;6.57;;
18610;SDS011;9435;52.122;5.502;2023-04-01T16:31:31;9.95;;;6.20;;
18610;SDS011;9435;52.122;5.502;2023-04-01T16:34:03;11.23;;;6.18;;
18610;SDS011;9435;52.122;5.502;2023-04-01T16:36:37;9.52;;;6.25;;
18610;SDS011;9435;52.122;5.502;2023-04-01T16:45:15;13.10;;;6.80;;
18610;SDS011;9435;52.122;5.502;2023-04-01T16:47:48;10.18;;;6.60;;
18610;SDS011;9435;52.122;5.502;2023-04-01T16:50:19;9.40;;;6.15;;
18610;SDS011;9435;52.122;5.502;2023-04-01T16:52:53;10.60;;;6.10;;
18610;SDS011;9435;52.122;5.502;2023-04-01T16:55:41;10.30;;;6.38;;
18610;SDS011;9435;52.122;5.502;2023-04-01T16:58:18;9.38;;;6.55;;
18610;SDS011;9435;52.122;5.502;2023-04-01T17:00:49;9.75;;;6.30;;
18610;SDS011;9435;52.122;5.502;2023-04-01T17:03:20;9.63;;;6.07;;
18610;SDS011;9435;52.122;5.502;2023-04-01T17:06:04;9.48;;;6.40;;
18610;SDS011;9435;52.122;5.502;2023-04-01T17:08:49;11.02;;;6.82;;
18610;SDS011;9435;52.122;5.502;2023-04-01T17:11:28;9.65;;;6.57;;
18610;SDS011;9435;52.122;5.502;2023-04-01T17:14:07;11.25;;;6.95;;
18610;SDS011;9435;52.122;5.502;2023-04-01T17:16:48;9.93;;;6.90;;
18610;SDS011;9435;52.122;5.502;2023-04-01T17:19:27;12.65;;;7.30;;
18610;SDS011;9435;52.122;5.502;2023-04-01T17:22:16;11.80;;;6.80;;